createdAt,value
2023-01-19T00:00:37.072Z,98870.47
2023-01-19T00:03:38.899Z,98870.16
2023-01-19T00:06:54.019Z,98868.00
2023-01-19T00:10:02.696Z,98867.66
2023-01-19T00:13:11.002Z,98868.16
2023-01-19T00:16:26.988Z,98857.66
2023-01-19T00:19:29.227Z,98860.31
2023-01-19T00:22:44.020Z,98863.16
2023-01-19T00:25:52.995Z,98864.00
2023-01-19T00:29:01.976Z,98857.66
2023-01-19T00:32:12.044Z,98856.47
2023-01-19T00:35:20.640Z,98853.50
2023-01-19T00:38:29.008Z,98856.66
2023-01-19T00:41:44.061Z,98866.16
2023-01-19T00:44:45.914Z,98866.16
2023-01-19T00:48:08.059Z,98865.47
2023-01-19T00:51:09.868Z,98864.31
2023-01-19T00:54:26.898Z,98859.00
2023-01-19T00:57:29.444Z,98854.50
2023-01-19T01:00:44.053Z,98847.97
2023-01-19T01:03:53.034Z,98849.63
2023-01-19T01:07:01.680Z,98842.81
2023-01-19T01:10:10.032Z,98846.31
2023-01-19T01:13:20.191Z,98849.97
2023-01-19T01:16:30.089Z,98840.47
2023-01-19T01:19:48.047Z,98841.13
2023-01-19T01:22:52.130Z,98835.97
2023-01-19T01:26:07.009Z,98848.97
2023-01-19T01:29:08.863Z,98851.31
2023-01-19T01:32:24.071Z,98857.78
2023-01-19T01:35:25.908Z,98849.63
2023-01-19T01:38:42.110Z,98846.12
2023-01-19T01:41:51.051Z,98848.28
2023-01-19T01:45:23.090Z,98842.44
2023-01-19T01:48:39.044Z,98848.06
2023-01-19T01:51:53.023Z,98851.91
2023-01-19T01:55:03.097Z,98847.88
2023-01-19T01:58:19.072Z,98852.91
2023-01-19T02:01:21.002Z,98862.41
2023-01-19T02:04:38.060Z,98873.22
2023-01-19T02:08:05.657Z,98872.56
2023-01-19T02:11:20.060Z,98884.38
2023-01-19T02:14:29.089Z,98882.88
2023-01-19T02:17:37.725Z,98872.69
2023-01-19T02:20:50.129Z,98844.97
2023-01-19T02:24:00.353Z,98819.50
2023-01-19T02:27:09.065Z,98828.84
2023-01-19T02:30:18.813Z,98859.00
2023-01-19T02:33:27.096Z,98884.84
2023-01-19T02:36:51.094Z,98896.81
2023-01-19T02:39:56.640Z,98888.69
2023-01-19T02:43:14.116Z,98871.34
2023-01-19T02:46:16.355Z,98851.19
2023-01-19T02:49:38.072Z,98848.69
2023-01-19T02:52:46.042Z,98837.50
2023-01-19T02:56:07.149Z,98815.19
2023-01-19T02:59:31.107Z,98834.53
2023-01-19T03:02:55.666Z,98861.34
2023-01-19T03:06:18.087Z,98870.81
2023-01-19T03:09:47.079Z,98869.62
2023-01-19T03:12:56.662Z,98865.31
2023-01-19T03:16:21.829Z,98854.16
2023-01-19T03:19:32.796Z,98874.50
2023-01-19T03:22:48.113Z,98884.75
2023-01-19T03:25:51.015Z,98895.78
2023-01-19T03:29:09.089Z,98898.66
2023-01-19T03:32:23.217Z,98865.31
2023-01-19T03:35:35.779Z,98858.97
2023-01-19T03:38:47.134Z,98846.16
2023-01-19T03:42:07.256Z,98817.47
2023-01-19T03:45:17.167Z,98800.31
2023-01-19T03:48:40.149Z,98806.75
2023-01-19T03:51:42.228Z,98816.41
2023-01-19T03:54:57.108Z,98833.41
2023-01-19T03:57:59.015Z,98834.25
2023-01-19T04:01:15.261Z,98826.94
2023-01-19T04:04:24.141Z,98859.38
2023-01-19T04:07:32.676Z,98870.72
2023-01-19T04:10:41.212Z,98861.72
2023-01-19T04:13:49.713Z,98841.53
2023-01-19T04:16:58.120Z,98875.34
2023-01-19T04:20:14.120Z,98860.72
2023-01-19T04:23:22.181Z,98869.72
2023-01-19T04:26:37.109Z,98864.69
2023-01-19T04:29:39.256Z,98859.72
2023-01-19T04:32:55.107Z,98861.88
2023-01-19T04:35:57.305Z,98857.69
2023-01-19T04:39:12.137Z,98852.19
2023-01-19T04:42:21.147Z,98850.34
2023-01-19T04:45:29.712Z,98838.38
2023-01-19T04:48:51.164Z,98840.56
2023-01-19T04:51:59.804Z,98845.72
2023-01-19T04:55:11.167Z,98839.25
2023-01-19T04:58:19.723Z,98848.41
2023-01-19T05:01:29.248Z,98851.91
2023-01-19T05:04:44.144Z,98866.47
2023-01-19T05:07:53.000Z,98870.97
2023-01-19T05:11:01.222Z,98886.00
2023-01-19T05:14:10.156Z,98889.97
2023-01-19T05:17:19.217Z,98875.78
2023-01-19T05:20:34.163Z,98875.88
2023-01-19T05:23:36.000Z,98899.78
2023-01-19T05:26:51.164Z,98899.62
2023-01-19T05:30:00.073Z,98918.84
2023-01-19T05:33:09.193Z,98922.06
2023-01-19T05:36:24.457Z,98901.88
2023-01-19T05:39:32.867Z,98913.78
2023-01-19T05:42:47.171Z,98914.84
2023-01-19T05:45:49.187Z,98913.84
2023-01-19T05:49:11.209Z,98899.03
2023-01-19T05:52:13.142Z,98885.44
2023-01-19T05:55:28.190Z,98886.47
2023-01-19T05:58:36.160Z,98895.78
2023-01-19T06:01:44.944Z,98875.09
2023-01-19T06:04:53.210Z,98857.81
2023-01-19T06:08:02.129Z,98863.78
2023-01-19T06:11:12.234Z,98868.13
2023-01-19T06:14:21.007Z,98872.13
2023-01-19T06:17:39.260Z,98855.25
2023-01-19T06:20:48.171Z,98858.59
2023-01-19T06:23:56.840Z,98867.63
2023-01-19T06:27:05.174Z,98853.13
2023-01-19T06:30:14.268Z,98837.78
2023-01-19T06:33:24.153Z,98849.09
2023-01-19T06:36:39.184Z,98854.47
2023-01-19T06:39:41.096Z,98863.59
2023-01-19T06:42:56.200Z,98888.59
2023-01-19T06:45:58.846Z,98895.91
2023-01-19T06:49:20.305Z,98909.91
2023-01-19T06:52:22.288Z,98898.06
2023-01-19T06:55:37.430Z,98895.56
2023-01-19T06:58:46.200Z,98886.75
2023-01-19T07:02:01.426Z,98894.69
2023-01-19T07:05:29.187Z,98885.22
2023-01-19T07:08:45.220Z,98890.91
2023-01-19T07:11:47.752Z,98884.41
2023-01-19T07:15:06.352Z,98873.97
2023-01-19T07:18:15.043Z,98861.44
2023-01-19T07:21:25.849Z,98862.22
2023-01-19T07:24:34.928Z,98892.44
2023-01-19T07:27:49.224Z,98907.12
2023-01-19T07:30:59.301Z,98912.25
2023-01-19T07:34:14.272Z,98917.31
2023-01-19T07:37:23.253Z,98897.66
2023-01-19T07:40:31.911Z,98901.31
2023-01-19T07:43:41.254Z,98894.50
2023-01-19T07:47:03.266Z,98910.16
2023-01-19T07:50:19.327Z,98903.84
2023-01-19T07:53:38.364Z,98917.50
2023-01-19T07:56:50.232Z,98917.84
2023-01-19T07:59:58.948Z,98934.84
2023-01-19T08:03:09.262Z,98930.66
2023-01-19T08:06:22.555Z,98933.19
2023-01-19T08:09:31.230Z,98928.19
2023-01-19T08:12:40.424Z,98916.22
2023-01-19T08:15:50.033Z,98911.37
2023-01-19T08:19:08.386Z,98908.88
2023-01-19T08:22:28.293Z,98906.06
2023-01-19T08:25:47.360Z,98907.50
2023-01-19T08:28:49.333Z,98907.84
2023-01-19T08:32:05.903Z,98894.16
2023-01-19T08:35:15.325Z,98923.72
2023-01-19T08:38:24.156Z,98924.88
2023-01-19T08:41:33.358Z,98922.25
2023-01-19T08:44:57.256Z,98923.59
2023-01-19T08:48:06.299Z,98918.47
2023-01-19T08:51:21.587Z,98928.31
2023-01-19T08:54:30.339Z,98931.25
2023-01-19T08:57:38.995Z,98927.25
2023-01-19T09:00:47.304Z,98926.37
2023-01-19T09:04:02.281Z,98931.22
2023-01-19T09:10:20.229Z,98911.47
2023-01-19T09:13:29.303Z,98920.31
2023-01-19T09:16:44.316Z,98920.31
2023-01-19T09:19:56.305Z,98914.97
2023-01-19T09:23:12.491Z,98922.50
2023-01-19T09:26:21.359Z,98928.16
2023-01-19T09:29:30.646Z,98928.75
2023-01-19T09:33:10.525Z,98910.59
2023-01-19T09:36:25.289Z,98925.59
2023-01-19T09:39:27.387Z,98932.75
2023-01-19T09:42:55.011Z,98933.87
2023-01-19T09:46:03.739Z,98931.53
2023-01-19T09:49:40.336Z,98913.19
2023-01-19T09:52:47.392Z,98918.16
2023-01-19T09:56:03.307Z,98927.00
2023-01-19T09:59:30.313Z,98935.09
2023-01-19T10:02:40.494Z,98925.44
2023-01-19T10:06:08.404Z,98930.59
2023-01-19T10:09:27.527Z,98946.16
2023-01-19T10:12:54.429Z,98949.09
2023-01-19T10:16:10.216Z,98950.09
2023-01-19T10:19:39.360Z,98947.81
2023-01-19T10:22:42.899Z,98958.84
2023-01-19T10:25:59.418Z,98953.50
2023-01-19T10:29:26.402Z,98956.47
2023-01-19T10:32:34.014Z,98952.47
2023-01-19T10:35:48.404Z,98958.19
2023-01-19T10:38:50.532Z,98969.78
2023-01-19T10:42:09.423Z,98960.69
2023-01-19T10:45:21.862Z,98966.84
2023-01-19T10:48:46.496Z,98969.34
2023-01-19T10:52:04.320Z,98968.41
2023-01-19T10:55:26.712Z,98963.63
2023-01-19T10:58:37.377Z,98980.66
2023-01-19T11:02:09.860Z,98980.44
2023-01-19T11:05:24.673Z,98975.78
2023-01-19T11:08:49.571Z,98976.50
2023-01-19T11:11:53.444Z,98984.84
2023-01-19T11:15:22.325Z,98976.56
2023-01-19T11:18:30.502Z,98966.00
2023-01-19T11:21:45.377Z,98973.50
2023-01-19T11:25:05.348Z,98975.75
2023-01-19T11:28:25.393Z,98970.03
2023-01-19T11:31:42.500Z,98963.19
2023-01-19T11:34:44.414Z,98966.22
2023-01-19T11:38:13.388Z,98980.69
2023-01-19T11:41:19.962Z,98976.44
2023-01-19T11:44:41.380Z,98991.97
2023-01-19T11:47:50.109Z,98986.59
2023-01-19T11:50:59.384Z,98984.75
